Time;durP1;ratioP1;P1;durP2;ratioP2;P2;SDS_P1;SDS_P2;PMS_P1;PMS_P2;Temp;Humidity;BMP_temperature;BMP_pressure;BME280_temperature;BME280_humidity;BME280_pressure;Samples;Min_cycle;Max_cycle;Signal;HPM_P1;HPM_P2
2023/12/31 00:01:59;;;;;;;5.03;4.07;;;5.40;57.00;;;;;;5033450;28;20268;-64
2023/12/31 00:04:25;;;;;;;5.03;4.00;;;5.40;57.00;;;;;;5033410;28;20263;-64
2023/12/31 00:06:52;;;;;;;5.83;4.47;;;5.40;57.10;;;;;;5029423;28;20287;-64
2023/12/31 00:09:18;;;;;;;4.93;4.47;;;5.40;56.90;;;;;;5033291;28;20701;-64
2023/12/31 00:11:45;;;;;;;5.07;4.33;;;5.50;57.10;;;;;;5032792;28;20257;-64
2023/12/31 00:14:11;;;;;;;4.60;4.20;;;5.40;56.70;;;;;;5033259;28;20203;-64
2023/12/31 00:16:38;;;;;;;4.73;3.60;;;5.50;56.80;;;;;;5029177;28;20631;-64
2023/12/31 00:19:04;;;;;;;4.03;3.63;;;5.40;56.50;;;;;;5027296;28;20206;-64
2023/12/31 00:21:31;;;;;;;4.80;3.90;;;5.30;56.60;;;;;;5025974;28;20238;-65
2023/12/31 00:23:57;;;;;;;4.20;3.80;;;5.30;56.50;;;;;;5030035;28;20270;-64
2023/12/31 00:26:24;;;;;;;6.67;4.17;;;5.20;57.00;;;;;;5025019;28;20223;-64
2023/12/31 00:28:50;;;;;;;5.50;4.60;;;5.10;57.00;;;;;;5029260;28;20254;-64
2023/12/31 00:31:18;;;;;;;5.30;4.47;;;5.30;57.00;;;;;;5026711;28;20269;-65
2023/12/31 00:33:45;;;;;;;4.70;4.20;;;5.30;56.50;;;;;;5032352;28;20285;-64
2023/12/31 00:36:11;;;;;;;4.90;4.30;;;5.30;56.80;;;;;;5028053;28;20223;-64
2023/12/31 00:38:38;;;;;;;4.57;4.10;;;5.30;56.60;;;;;;5032652;28;20241;-64
2023/12/31 00:41:05;;;;;;;4.50;4.10;;;5.20;56.70;;;;;;5024286;28;20211;-64
2023/12/31 00:43:31;;;;;;;4.83;4.33;;;5.20;56.80;;;;;;5032456;28;20229;-64
2023/12/31 00:45:58;;;;;;;4.63;4.23;;;5.30;56.90;;;;;;5031010;28;20261;-64
2023/12/31 00:48:24;;;;;;;4.70;4.17;;;5.30;56.90;;;;;;5027355;28;20691;-64
2023/12/31 00:50:51;;;;;;;5.70;4.30;;;5.30;56.70;;;;;;5022132;28;20240;-64
2023/12/31 00:53:17;;;;;;;4.00;3.70;;;5.20;56.90;;;;;;5031303;28;20238;-64
2023/12/31 00:55:44;;;;;;;4.33;3.93;;;5.10;57.20;;;;;;5031732;28;20226;-64
2023/12/31 00:58:10;;;;;;;4.30;3.90;;;5.10;57.70;;;;;;5021294;28;20269;-64
2023/12/31 01:00:38;;;;;;;4.00;3.70;;;5.10;57.30;;;;;;5032214;28;20345;-62
2023/12/31 01:03:04;;;;;;;5.33;4.10;;;5.00;57.50;;;;;;5031980;28;20214;-64
2023/12/31 01:05:31;;;;;;;4.40;4.00;;;5.20;57.30;;;;;;5029102;28;20226;-63
2023/12/31 01:07:57;;;;;;;4.27;3.80;;;5.20;57.30;;;;;;5029449;28;20244;-64
2023/12/31 01:10:24;;;;;;;4.43;4.03;;;5.10;57.30;;;;;;5031741;28;20676;-64
2023/12/31 01:12:50;;;;;;;4.47;3.73;;;5.10;57.20;;;;;;5032190;28;20213;-64
2023/12/31 01:15:17;;;;;;;5.30;3.50;;;5.20;57.10;;;;;;5026612;28;20757;-64
2023/12/31 01:17:43;;;;;;;3.97;3.67;;;5.20;57.10;;;;;;5026813;28;20238;-64
2023/12/31 01:20:10;;;;;;;3.93;3.53;;;5.20;57.20;;;;;;5026140;28;20309;-64
2023/12/31 01:22:36;;;;;;;4.00;3.60;;;5.20;57.50;;;;;;5031570;28;20245;-64
2023/12/31 01:25:03;;;;;;;3.90;3.60;;;5.10;57.50;;;;;;5031774;28;20280;-64
2023/12/31 01:27:30;;;;;;;4.40;3.77;;;5.00;57.80;;;;;;5027467;28;20194;-64
2023/12/31 01:29:56;;;;;;;4.03;3.70;;;4.90;57.70;;;;;;5031693;28;20264;-64
2023/12/31 01:32:22;;;;;;;4.13;3.80;;;5.00;58.30;;;;;;5024157;28;20692;-64
2023/12/31 01:34:49;;;;;;;5.50;4.10;;;5.00;58.10;;;;;;5031050;28;20211;-64
2023/12/31 01:37:16;;;;;;;4.03;3.73;;;5.10;57.80;;;;;;5030825;28;20560;-64
2023/12/31 01:39:42;;;;;;;4.20;3.80;;;5.00;57.40;;;;;;5031795;28;20256;-64
2023/12/31 01:42:09;;;;;;;4.37;3.90;;;5.10;57.90;;;;;;5031836;28;20584;-63
2023/12/31 01:44:35;;;;;;;4.20;3.57;;;5.10;57.90;;;;;;5031229;28;20269;-65
2023/12/31 01:47:02;;;;;;;5.43;4.93;;;5.00;57.70;;;;;;5029778;28;20551;-65
2023/12/31 01:49:30;;;;;;;5.17;4.40;;;5.10;57.80;;;;;;5024796;28;20289;-64
2023/12/31 01:51:56;;;;;;;4.33;3.93;;;5.00;57.70;;;;;;5029385;28;20211;-64
2023/12/31 01:54:23;;;;;;;4.50;4.00;;;5.00;58.00;;;;;;5031268;28;20239;-64
2023/12/31 01:56:49;;;;;;;4.43;4.03;;;5.10;57.70;;;;;;5027820;28;20226;-65
2023/12/31 01:59:15;;;;;;;6.67;4.30;;;5.00;57.80;;;;;;5031400;28;20234;-63
2023/12/31 02:01:42;;;;;;;4.87;4.47;;;4.90;57.90;;;;;;5031460;28;20261;-64
2023/12/31 02:04:09;;;;;;;4.40;3.70;;;4.90;58.30;;;;;;5031123;28;20226;-64
2023/12/31 02:06:35;;;;;;;3.80;3.50;;;4.90;57.60;;;;;;5028358;28;20257;-64
2023/12/31 02:09:02;;;;;;;4.20;3.80;;;4.80;58.50;;;;;;5025171;28;20293;-64
2023/12/31 02:11:28;;;;;;;3.90;3.50;;;4.80;58.50;;;;;;5035268;28;20206;-65
2023/12/31 02:13:55;;;;;;;3.60;3.30;;;4.60;58.70;;;;;;5035227;28;20226;-63
2023/12/31 02:16:21;;;;;;;4.33;3.63;;;4.60;58.10;;;;;;5034649;28;20720;-64
2023/12/31 02:18:48;;;;;;;3.37;3.07;;;4.70;58.10;;;;;;5034370;28;20217;-64
2023/12/31 02:21:14;;;;;;;3.93;3.53;;;4.60;57.80;;;;;;5033450;28;20294;-63
2023/12/31 02:23:41;;;;;;;3.67;3.37;;;4.40;58.50;;;;;;5031151;28;20610;-63
2023/12/31 02:26:07;;;;;;;3.80;3.40;;;4.40;58.60;;;;;;5035125;28;20280;-63
2023/12/31 02:28:34;;;;;;;3.30;3.00;;;4.40;58.60;;;;;;5035763;28;20252;-64
2023/12/31 02:31:00;;;;;;;3.40;3.10;;;4.40;58.70;;;;;;5037931;28;20214;-66
2023/12/31 02:33:27;;;;;;;3.77;3.47;;;4.20;57.80;;;;;;5039039;28;20206;-64
2023/12/31 02:35:53;;;;;;;3.97;3.40;;;4.20;58.10;;;;;;5036195;28;20288;-64
2023/12/31 02:38:20;;;;;;;3.57;3.27;;;4.20;58.00;;;;;;5023488;28;20262;-65
2023/12/31 02:40:46;;;;;;;3.63;3.33;;;4.40;58.10;;;;;;5033773;28;20242;-64
2023/12/31 02:43:13;;;;;;;3.40;3.10;;;4.40;57.80;;;;;;5026614;28;20865;-64
2023/12/31 02:45:39;;;;;;;3.23;2.93;;;4.40;57.20;;;;;;5035140;28;20257;-64
2023/12/31 02:48:06;;;;;;;3.50;3.20;;;4.10;57.90;;;;;;5034670;28;20242;-64
2023/12/31 02:50:32;;;;;;;4.03;3.60;;;4.10;58.30;;;;;;5034518;28;20210;-65
2023/12/31 02:52:59;;;;;;;3.73;3.43;;;4.20;57.80;;;;;;5029811;28;20238;-64
2023/12/31 02:55:25;;;;;;;3.93;3.37;;;4.20;57.80;;;;;;5027558;28;20709;-64
2023/12/31 02:57:52;;;;;;;3.67;3.37;;;4.30;57.80;;;;;;5030563;28;20295;-64
2023/12/31 03:00:18;;;;;;;3.40;3.10;;;4.40;57.60;;;;;;5034049;28;20739;-65
2023/12/31 03:02:45;;;;;;;3.83;3.53;;;4.30;57.10;;;;;;5031203;28;20210;-64
2023/12/31 03:05:12;;;;;;;3.50;3.20;;;4.30;57.40;;;;;;5032840;28;20231;-64
2023/12/31 03:07:38;;;;;;;3.43;3.23;;;4.30;57.00;;;;;;5032325;28;20202;-65
2023/12/31 03:10:05;;;;;;;3.63;3.37;;;4.30;57.40;;;;;;5034838;28;20210;-64
2023/12/31 03:12:32;;;;;;;4.07;3.67;;;4.30;57.00;;;;;;5032960;28;20280;-64
2023/12/31 03:14:58;;;;;;;3.30;3.00;;;4.30;56.70;;;;;;5031230;28;20223;-64
2023/12/31 03:17:25;;;;;;;3.30;3.10;;;4.30;56.60;;;;;;5033625;28;20507;-64
2023/12/31 03:19:51;;;;;;;3.83;3.03;;;4.10;56.60;;;;;;5033992;28;20206;-63
2023/12/31 03:22:18;;;;;;;3.53;3.17;;;4.20;56.80;;;;;;5033465;28;20668;-64
2023/12/31 03:24:44;;;;;;;3.30;3.03;;;4.20;56.40;;;;;;5033865;28;20266;-65
2023/12/31 03:27:11;;;;;;;3.10;2.80;;;4.20;55.90;;;;;;5034077;28;20269;-65
2023/12/31 03:29:37;;;;;;;3.03;2.83;;;4.20;56.20;;;;;;5033301;28;20764;-65
2023/12/31 03:32:04;;;;;;;3.00;2.80;;;4.30;55.50;;;;;;5030408;28;20704;-65
2023/12/31 03:34:30;;;;;;;3.03;2.83;;;4.20;55.10;;;;;;5033692;28;20203;-65
2023/12/31 03:36:57;;;;;;;3.50;3.00;;;4.30;55.50;;;;;;5026783;28;20226;-63
2023/12/31 03:39:23;;;;;;;3.37;3.00;;;4.30;55.20;;;;;;5033724;28;20425;-64
2023/12/31 03:41:50;;;;;;;3.30;3.10;;;4.30;55.10;;;;;;5033718;28;20203;-64
2023/12/31 03:44:16;;;;;;;3.00;2.80;;;4.30;54.80;;;;;;5033549;28;20276;-64
2023/12/31 03:46:44;;;;;;;3.60;3.00;;;4.40;55.10;;;;;;5031778;28;20226;-64
2023/12/31 03:49:10;;;;;;;3.53;3.23;;;4.30;54.20;;;;;;5030843;28;20211;-64
2023/12/31 03:51:37;;;;;;;3.30;3.00;;;4.30;55.10;;;;;;5033104;28;20198;-64
2023/12/31 03:54:05;;;;;;;3.33;3.03;;;4.20;54.90;;;;;;5033543;28;20296;-64
2023/12/31 03:56:32;;;;;;;3.50;3.20;;;4.20;54.90;;;;;;5029038;28;20618;-65
2023/12/31 03:58:58;;;;;;;4.13;3.27;;;4.30;54.60;;;;;;5033628;28;20210;-64
2023/12/31 04:01:25;;;;;;;2.87;2.67;;;4.20;54.10;;;;;;5033387;28;20214;-65
2023/12/31 04:03:51;;;;;;;3.20;2.90;;;4.30;54.30;;;;;;5030739;28;20266;-65
2023/12/31 04:06:18;;;;;;;3.60;3.30;;;4.40;54.20;;;;;;5032384;28;20226;-64
2023/12/31 04:08:44;;;;;;;2.90;2.70;;;4.40;54.20;;;;;;5033155;28;20238;-64
2023/12/31 04:11:11;;;;;;;3.00;2.80;;;4.50;54.30;;;;;;5029827;28;20203;-64
2023/12/31 04:13:37;;;;;;;2.87;2.67;;;4.50;53.50;;;;;;5033240;28;20203;-64
2023/12/31 04:16:04;;;;;;;3.40;3.20;;;4.40;54.00;;;;;;5033121;28;20261;-63
2023/12/31 04:18:30;;;;;;;3.43;2.90;;;4.40;54.00;;;;;;5033174;28;20233;-64
2023/12/31 04:20:57;;;;;;;3.17;2.60;;;4.40;54.00;;;;;;5030026;28;20264;-65
2023/12/31 04:23:23;;;;;;;3.07;2.70;;;4.40;53.90;;;;;;5025097;28;20592;-65
2023/12/31 04:25:50;;;;;;;2.90;2.70;;;4.30;53.10;;;;;;5033004;28;20265;-64
2023/12/31 04:28:16;;;;;;;3.10;2.90;;;4.20;53.30;;;;;;5030640;28;20206;-65
2023/12/31 04:30:43;;;;;;;3.13;2.70;;;4.20;53.30;;;;;;5034529;28;20211;-64
2023/12/31 04:33:09;;;;;;;2.60;2.40;;;4.20;54.00;;;;;;5035198;28;20218;-65
2023/12/31 04:35:36;;;;;;;3.10;2.90;;;4.30;53.80;;;;;;5032855;28;20222;-65
2023/12/31 04:38:02;;;;;;;2.90;2.70;;;4.30;53.40;;;;;;5034237;28;20208;-64
2023/12/31 04:40:29;;;;;;;3.37;2.70;;;4.30;53.60;;;;;;5032857;28;20210;-64
2023/12/31 04:42:55;;;;;;;2.90;2.70;;;4.20;53.20;;;;;;5028248;28;20238;-64
2023/12/31 04:45:22;;;;;;;2.77;2.60;;;4.20;53.30;;;;;;5032167;28;20315;-64
2023/12/31 04:47:48;;;;;;;2.57;2.40;;;4.20;53.30;;;;;;5032516;28;20234;-64
2023/12/31 04:50:15;;;;;;;2.90;2.70;;;4.00;53.40;;;;;;5032221;28;20256;-64
2023/12/31 04:52:41;;;;;;;2.47;2.37;;;3.90;53.80;;;;;;5032326;28;20238;-64
2023/12/31 04:55:08;;;;;;;2.43;2.30;;;4.00;53.90;;;;;;5028856;28;20259;-64
2023/12/31 04:57:34;;;;;;;2.43;2.33;;;4.00;53.40;;;;;;5032380;28;20215;-64
2023/12/31 05:00:01;;;;;;;2.70;2.60;;;4.00;53.30;;;;;;5025845;28;20237;-64
2023/12/31 05:02:27;;;;;;;2.40;2.20;;;3.90;53.10;;;;;;5032149;28;20218;-65
2023/12/31 05:04:54;;;;;;;2.50;2.40;;;3.80;55.30;;;;;;5031922;28;20692;-64
2023/12/31 05:07:20;;;;;;;2.20;2.10;;;3.80;54.60;;;;;;5031850;28;20267;-64
2023/12/31 05:09:47;;;;;;;2.70;2.50;;;3.80;54.10;;;;;;5032115;28;20630;-64
2023/12/31 05:12:13;;;;;;;2.50;2.40;;;3.90;53.20;;;;;;5028971;28;20250;-64
2023/12/31 05:14:40;;;;;;;2.70;2.50;;;4.00;52.30;;;;;;5027832;28;20230;-64
2023/12/31 05:17:06;;;;;;;2.37;2.17;;;4.00;51.70;;;;;;5023520;28;20243;-64
2023/12/31 05:19:33;;;;;;;2.50;2.30;;;4.00;52.40;;;;;;5031899;28;20629;-64
2023/12/31 05:21:59;;;;;;;2.70;2.50;;;4.10;51.80;;;;;;5031603;28;20202;-65
2023/12/31 05:24:26;;;;;;;3.00;2.70;;;4.10;51.70;;;;;;5031746;28;20266;-65
2023/12/31 05:26:52;;;;;;;2.73;2.53;;;4.20;51.50;;;;;;5029394;28;20657;-65
2023/12/31 05:29:19;;;;;;;2.47;2.33;;;4.10;51.40;;;;;;5028364;28;20280;-64
2023/12/31 05:31:45;;;;;;;2.63;2.50;;;4.10;51.10;;;;;;5024649;28;20239;-65
2023/12/31 05:34:11;;;;;;;2.60;2.40;;;4.10;51.50;;;;;;5024292;28;20635;-65
2023/12/31 05:36:39;;;;;;;2.30;2.20;;;4.00;51.10;;;;;;5023648;28;20223;-65
2023/12/31 05:39:05;;;;;;;2.40;2.20;;;4.00;51.10;;;;;;5028769;28;20218;-65
2023/12/31 05:41:32;;;;;;;2.43;2.30;;;4.00;50.80;;;;;;5031560;28;20257;-65
2023/12/31 05:43:58;;;;;;;2.67;2.47;;;4.10;50.60;;;;;;5032245;28;20258;-65
2023/12/31 05:46:25;;;;;;;2.30;2.13;;;4.10;51.20;;;;;;5024731;28;20258;-65
2023/12/31 05:48:51;;;;;;;2.40;2.20;;;4.20;51.20;;;;;;5032553;28;20284;-65
2023/12/31 05:51:18;;;;;;;2.47;2.33;;;4.10;50.50;;;;;;5032521;28;20587;-65
2023/12/31 05:53:45;;;;;;;2.63;2.47;;;4.10;50.30;;;;;;5032917;28;20245;-65
2023/12/31 05:56:11;;;;;;;2.60;2.40;;;4.00;50.40;;;;;;5032245;28;20222;-65
2023/12/31 05:58:42;;;;;;;2.17;2.07;;;4.00;50.50;;;;;;5032633;28;20202;-65
2023/12/31 06:01:08;;;;;;;2.20;2.10;;;4.00;50.80;;;;;;5029686;28;20203;-65
2023/12/31 06:03:35;;;;;;;2.40;2.30;;;4.00;51.00;;;;;;5028058;28;20210;-65
2023/12/31 06:06:01;;;;;;;2.40;2.30;;;4.10;51.10;;;;;;5031791;28;20288;-65
2023/12/31 06:08:28;;;;;;;2.67;2.20;;;4.20;51.30;;;;;;5031190;28;20677;-64
2023/12/31 06:10:54;;;;;;;2.20;2.10;;;4.20;50.70;;;;;;5031589;28;20248;-65
2023/12/31 06:13:21;;;;;;;2.70;2.50;;;4.20;50.90;;;;;;5031560;28;20207;-64
2023/12/31 06:15:47;;;;;;;2.97;2.70;;;4.10;50.90;;;;;;5031200;28;20258;-64
2023/12/31 06:18:14;;;;;;;3.30;2.40;;;4.00;51.00;;;;;;5027154;28;20623;-65
2023/12/31 06:20:40;;;;;;;2.83;2.07;;;4.10;51.10;;;;;;5027842;28;20296;-65
2023/12/31 06:23:07;;;;;;;2.40;2.13;;;4.10;50.90;;;;;;5024873;28;20246;-65
2023/12/31 06:25:33;;;;;;;3.13;2.10;;;4.10;51.40;;;;;;5027426;28;20319;-65
2023/12/31 06:28:00;;;;;;;2.37;2.17;;;4.10;50.20;;;;;;5027927;28;20202;-65
2023/12/31 06:30:26;;;;;;;3.27;2.10;;;4.10;50.10;;;;;;5031091;28;20743;-65
2023/12/31 06:32:52;;;;;;;2.60;2.40;;;4.20;50.90;;;;;;5031219;28;20249;-65
2023/12/31 06:35:19;;;;;;;2.40;2.20;;;4.20;50.50;;;;;;5031112;28;20230;-64
2023/12/31 06:37:45;;;;;;;2.47;2.27;;;4.10;50.50;;;;;;5026471;28;20975;-64
2023/12/31 06:40:12;;;;;;;2.53;2.33;;;4.10;50.70;;;;;;5025876;28;20241;-65
2023/12/31 06:42:38;;;;;;;2.37;2.27;;;4.10;50.40;;;;;;5025173;28;20249;-65
2023/12/31 06:45:05;;;;;;;2.30;2.20;;;4.10;50.10;;;;;;5031109;28;20732;-65
2023/12/31 06:47:31;;;;;;;2.47;2.20;;;4.20;51.00;;;;;;5025765;28;20209;-65
2023/12/31 06:49:58;;;;;;;2.10;2.00;;;4.20;52.50;;;;;;5030152;28;20628;-64
2023/12/31 06:52:24;;;;;;;2.23;2.13;;;4.20;53.70;;;;;;5028754;28;20260;-64
2023/12/31 06:54:51;;;;;;;2.20;2.10;;;4.00;53.80;;;;;;5030821;28;20206;-63
2023/12/31 06:57:17;;;;;;;2.30;2.20;;;4.10;52.60;;;;;;5034345;28;20246;-64
2023/12/31 06:59:44;;;;;;;2.57;2.40;;;4.00;53.80;;;;;;5034438;28;20724;-64
2023/12/31 07:02:10;;;;;;;2.50;2.30;;;4.00;53.00;;;;;;5031204;28;20264;-64
2023/12/31 07:04:37;;;;;;;2.60;2.40;;;4.10;53.10;;;;;;5027250;28;20226;-64
2023/12/31 07:07:03;;;;;;;2.60;2.40;;;4.10;51.00;;;;;;5034255;28;20214;-64
2023/12/31 07:09:30;;;;;;;2.20;2.10;;;4.10;49.50;;;;;;5034248;28;20793;-64
2023/12/31 07:11:56;;;;;;;2.40;2.30;;;4.10;49.40;;;;;;5031029;28;20236;-64
2023/12/31 07:14:24;;;;;;;2.67;2.10;;;4.10;48.90;;;;;;5034082;28;20203;-64
2023/12/31 07:16:50;;;;;;;2.53;2.33;;;4.20;49.60;;;;;;5034261;28;20226;-64
2023/12/31 07:19:17;;;;;;;2.70;2.50;;;4.10;49.20;;;;;;5034285;28;20241;-65
2023/12/31 07:21:44;;;;;;;2.33;2.23;;;4.20;49.10;;;;;;5030619;28;20723;-65
2023/12/31 07:24:10;;;;;;;2.17;2.07;;;4.20;48.40;;;;;;5032154;28;20225;-64
2023/12/31 07:26:37;;;;;;;2.30;2.20;;;4.20;48.00;;;;;;5033755;28;20265;-64
2023/12/31 07:29:04;;;;;;;2.33;2.20;;;4.30;47.50;;;;;;5030098;28;20207;-64
2023/12/31 07:31:30;;;;;;;2.50;2.30;;;4.30;47.20;;;;;;5034112;28;20237;-64
2023/12/31 07:33:57;;;;;;;2.50;2.30;;;4.40;47.30;;;;;;5033563;28;20210;-64
2023/12/31 07:36:23;;;;;;;2.43;2.27;;;4.40;47.30;;;;;;5027779;28;20325;-65
2023/12/31 07:38:50;;;;;;;2.53;2.33;;;4.40;47.60;;;;;;5025808;28;20292;-64
2023/12/31 07:41:16;;;;;;;2.70;2.40;;;4.40;47.30;;;;;;5028069;28;20704;-64
2023/12/31 07:43:44;;;;;;;2.50;2.23;;;4.30;47.20;;;;;;5024088;28;20229;-64
2023/12/31 07:46:10;;;;;;;2.40;2.20;;;4.30;47.20;;;;;;5025475;28;20230;-64
2023/12/31 07:48:37;;;;;;;2.43;2.23;;;4.40;47.20;;;;;;5031671;28;20734;-64
2023/12/31 07:51:03;;;;;;;2.40;2.30;;;4.30;46.80;;;;;;5023855;28;20241;-64
2023/12/31 07:53:30;;;;;;;2.67;2.47;;;4.40;46.30;;;;;;5028696;28;20573;-64
2023/12/31 07:55:56;;;;;;;2.30;2.20;;;4.50;45.80;;;;;;5026398;28;20262;-64
2023/12/31 07:58:26;;;;;;;2.60;2.40;;;4.50;45.60;;;;;;5026853;28;20234;-64
2023/12/31 08:00:53;;;;;;;2.43;2.23;;;4.60;45.60;;;;;;5027073;28;20352;-64
2023/12/31 08:03:19;;;;;;;2.90;2.70;;;4.70;45.60;;;;;;5024711;28;20246;-65
2023/12/31 08:05:46;;;;;;;2.63;2.43;;;4.80;46.10;;;;;;5021966;28;20674;-64
2023/12/31 08:08:12;;;;;;;2.60;2.40;;;4.90;46.10;;;;;;5027383;28;20203;-65
2023/12/31 08:10:40;;;;;;;2.60;2.47;;;5.00;45.90;;;;;;5025476;28;20707;-64
2023/12/31 08:13:07;;;;;;;2.67;2.57;;;4.90;45.40;;;;;;5025692;28;20206;-64
2023/12/31 08:15:33;;;;;;;2.90;2.70;;;4.90;45.80;;;;;;5024324;28;20299;-65
2023/12/31 08:18:00;;;;;;;2.30;2.10;;;4.90;45.80;;;;;;5030940;28;20238;-64
2023/12/31 08:20:26;;;;;;;2.47;2.37;;;4.90;45.80;;;;;;5026892;28;20252;-64
2023/12/31 08:22:53;;;;;;;2.80;2.50;;;5.00;46.90;;;;;;5023681;28;20241;-63
2023/12/31 08:25:20;;;;;;;4.13;2.30;;;5.10;46.40;;;;;;5031980;28;20313;-63
2023/12/31 08:27:46;;;;;;;2.97;2.77;;;5.30;46.60;;;;;;5029927;28;20287;-64
2023/12/31 08:30:13;;;;;;;2.43;2.33;;;5.40;47.10;;;;;;5027470;28;20260;-65
2023/12/31 08:32:39;;;;;;;2.10;2.00;;;5.40;47.50;;;;;;5029662;28;20288;-64
2023/12/31 08:35:06;;;;;;;2.40;2.20;;;5.50;46.30;;;;;;5029163;28;20277;-64
2023/12/31 08:37:32;;;;;;;3.30;2.17;;;5.50;45.20;;;;;;5021434;28;20235;-64
2023/12/31 08:39:59;;;;;;;2.53;2.33;;;5.40;45.10;;;;;;5027155;28;20246;-64
2023/12/31 08:42:25;;;;;;;2.50;2.30;;;5.60;44.50;;;;;;5026243;28;20718;-67
2023/12/31 08:44:52;;;;;;;2.40;2.20;;;5.70;45.10;;;;;;5020804;28;20252;-64
2023/12/31 08:47:18;;;;;;;2.47;2.27;;;6.00;43.80;;;;;;5020545;28;20241;-64
2023/12/31 08:49:45;;;;;;;2.67;2.47;;;5.90;42.80;;;;;;5024743;28;20208;-67
2023/12/31 08:52:11;;;;;;;3.47;2.83;;;5.90;43.40;;;;;;5022725;28;20247;-68
2023/12/31 08:54:39;;;;;;;2.73;2.23;;;6.10;42.80;;;;;;5028433;28;20216;-68
2023/12/31 08:57:05;;;;;;;2.47;2.33;;;6.40;41.30;;;;;;5025270;28;20633;-68
2023/12/31 08:59:32;;;;;;;2.33;2.13;;;6.60;41.40;;;;;;5023844;28;20232;-68
2023/12/31 09:01:58;;;;;;;2.40;2.20;;;6.70;41.00;;;;;;5024754;28;20244;-67
2023/12/31 09:04:28;;;;;;;2.27;2.17;;;6.90;40.70;;;;;;5024723;28;20893;-68
2023/12/31 09:06:54;;;;;;;2.33;2.20;;;6.90;39.90;;;;;;5019089;28;20291;-68
2023/12/31 09:09:23;;;;;;;2.40;2.30;;;6.80;39.80;;;;;;5019507;28;20208;-68
2023/12/31 09:11:49;;;;;;;3.47;2.50;;;6.70;40.10;;;;;;5007453;28;20259;-69
2023/12/31 09:14:16;;;;;;;2.50;2.30;;;7.00;39.10;;;;;;5019902;28;20300;-68
2023/12/31 09:16:42;;;;;;;3.17;2.30;;;7.00;38.90;;;;;;5024961;28;20762;-68
2023/12/31 09:19:09;;;;;;;2.57;2.37;;;7.20;38.50;;;;;;5022746;28;20245;-67
2023/12/31 09:21:35;;;;;;;2.33;2.13;;;7.30;38.70;;;;;;5009005;28;20249;-67
2023/12/31 09:24:02;;;;;;;2.70;2.50;;;7.20;38.70;;;;;;5005748;28;20349;-67
2023/12/31 09:26:28;;;;;;;2.60;2.40;;;7.10;38.50;;;;;;5008442;28;20238;-67
2023/12/31 09:28:55;;;;;;;2.37;2.17;;;7.10;38.50;;;;;;5027030;28;20300;-67
2023/12/31 09:31:25;;;;;;;2.40;2.20;;;7.00;38.90;;;;;;5026359;28;20201;-66
2023/12/31 09:33:51;;;;;;;2.73;2.53;;;7.10;39.20;;;;;;5027888;28;20208;-65
2023/12/31 09:36:19;;;;;;;2.30;2.20;;;7.00;38.40;;;;;;5026438;28;20700;-67
2023/12/31 09:38:45;;;;;;;2.57;2.37;;;7.10;39.00;;;;;;5024286;28;20241;-67
2023/12/31 09:41:12;;;;;;;2.60;2.50;;;7.20;39.40;;;;;;5020919;28;20245;-67
2023/12/31 09:43:38;;;;;;;2.80;2.60;;;7.20;39.20;;;;;;5022218;28;20263;-67
2023/12/31 09:46:05;;;;;;;2.60;2.40;;;7.10;39.30;;;;;;5025859;28;20307;-69
2023/12/31 09:48:31;;;;;;;2.40;2.30;;;7.10;39.50;;;;;;5020763;28;20236;-67
2023/12/31 09:50:58;;;;;;;3.30;3.00;;;7.10;39.60;;;;;;5025878;28;20216;-67
2023/12/31 09:53:26;;;;;;;2.90;2.50;;;7.20;39.10;;;;;;5018412;28;20214;-67
2023/12/31 09:55:56;;;;;;;3.27;2.70;;;7.20;38.90;;;;;;5014225;28;20230;-67
2023/12/31 09:58:23;;;;;;;3.57;3.00;;;7.20;39.30;;;;;;5022525;28;20220;-67
2023/12/31 10:00:49;;;;;;;3.30;2.80;;;7.20;39.20;;;;;;5023129;28;20211;-67
2023/12/31 10:03:16;;;;;;;2.73;2.53;;;7.30;39.30;;;;;;5023192;28;20287;-68
2023/12/31 10:05:43;;;;;;;5.63;2.73;;;7.30;39.00;;;;;;5026516;28;20229;-69
2023/12/31 10:08:09;;;;;;;5.93;2.90;;;7.30;40.10;;;;;;5014077;28;20205;-64
2023/12/31 10:10:36;;;;;;;2.60;2.40;;;7.60;41.60;;;;;;5024689;28;20235;-60
2023/12/31 10:13:02;;;;;;;2.60;2.40;;;7.50;44.40;;;;;;5028980;28;20209;-61
2023/12/31 10:15:29;;;;;;;3.33;3.03;;;7.50;45.50;;;;;;5021532;28;20218;-61
2023/12/31 10:17:56;;;;;;;4.13;2.80;;;7.40;40.80;;;;;;5019777;28;20210;-61
2023/12/31 10:20:23;;;;;;;3.53;2.93;;;7.40;42.20;;;;;;5021670;28;20210;-61
2023/12/31 10:22:49;;;;;;;3.17;2.87;;;7.40;42.30;;;;;;5022063;28;20743;-62
2023/12/31 10:25:16;;;;;;;3.10;2.90;;;7.50;42.30;;;;;;5023251;28;20276;-62
2023/12/31 10:27:42;;;;;;;2.83;2.63;;;7.60;41.20;;;;;;5031850;28;20209;-62
2023/12/31 10:30:09;;;;;;;2.80;2.53;;;7.60;40.60;;;;;;5032700;28;20296;-62
2023/12/31 10:32:35;;;;;;;2.63;2.43;;;7.70;41.00;;;;;;5023092;28;20248;-62
2023/12/31 10:35:02;;;;;;;2.57;2.47;;;7.70;41.20;;;;;;5031528;28;20277;-62
2023/12/31 10:37:28;;;;;;;4.60;2.70;;;7.60;40.70;;;;;;5033627;28;20263;-61
2023/12/31 10:39:55;;;;;;;3.00;2.70;;;7.60;41.00;;;;;;5032721;28;20590;-61
2023/12/31 10:42:21;;;;;;;3.73;2.83;;;7.50;42.70;;;;;;5028622;28;20214;-61
2023/12/31 10:44:49;;;;;;;3.80;3.23;;;7.60;42.10;;;;;;5031964;28;20221;-60
2023/12/31 10:47:16;;;;;;;4.57;2.83;;;7.60;43.20;;;;;;5031116;28;20591;-62
2023/12/31 10:49:42;;;;;;;4.23;3.13;;;7.70;42.20;;;;;;5027455;28;20206;-61
2023/12/31 10:52:09;;;;;;;3.63;3.33;;;7.70;42.90;;;;;;5022658;28;20254;-61
2023/12/31 10:54:35;;;;;;;3.50;3.20;;;7.80;41.30;;;;;;5032445;28;20232;-61
2023/12/31 10:57:02;;;;;;;3.33;3.03;;;7.90;41.60;;;;;;5027667;28;20329;-60
2023/12/31 10:59:28;;;;;;;3.37;3.07;;;8.10;41.90;;;;;;5025253;28;20219;-61
2023/12/31 11:01:55;;;;;;;3.60;3.07;;;8.20;41.00;;;;;;5029280;28;20295;-62
2023/12/31 11:04:21;;;;;;;3.40;3.00;;;8.40;40.90;;;;;;5025408;28;20226;-61
2023/12/31 11:06:49;;;;;;;3.17;2.87;;;8.60;42.40;;;;;;5021115;28;20265;-62
2023/12/31 11:09:15;;;;;;;4.07;3.30;;;8.80;39.90;;;;;;5027467;28;20229;-60
2023/12/31 11:11:42;;;;;;;3.50;3.20;;;9.00;40.00;;;;;;5026946;28;20226;-60
2023/12/31 11:14:09;;;;;;;4.00;3.37;;;9.20;38.30;;;;;;5026363;28;20226;-60
2023/12/31 11:16:35;;;;;;;3.50;3.20;;;9.10;37.70;;;;;;5027226;28;20219;-61
2023/12/31 11:19:02;;;;;;;3.50;3.20;;;9.30;37.40;;;;;;5034069;28;20767;-61
2023/12/31 11:21:28;;;;;;;5.47;4.00;;;9.50;37.30;;;;;;5036285;28;20281;-62
2023/12/31 11:23:55;;;;;;;5.20;3.33;;;9.60;37.30;;;;;;5026506;28;20424;-61
2023/12/31 11:26:21;;;;;;;4.50;3.50;;;9.50;37.80;;;;;;5034387;28;20702;-64
2023/12/31 11:28:48;;;;;;;4.07;2.77;;;9.50;37.70;;;;;;5034821;28;20208;-62
2023/12/31 11:31:15;;;;;;;3.27;2.97;;;9.50;37.60;;;;;;5021094;28;20208;-60
2023/12/31 11:33:41;;;;;;;3.53;3.20;;;9.60;37.30;;;;;;5023856;28;20304;-61
2023/12/31 11:36:09;;;;;;;3.00;2.80;;;9.60;36.20;;;;;;5026151;28;20220;-60
2023/12/31 11:38:35;;;;;;;3.87;3.30;;;9.70;37.20;;;;;;5022236;28;20673;-61
2023/12/31 11:41:02;;;;;;;2.80;2.60;;;9.60;38.10;;;;;;5024590;28;20274;-62
2023/12/31 11:43:29;;;;;;;3.70;3.33;;;9.50;39.60;;;;;;5022113;28;20204;-61
2023/12/31 11:45:55;;;;;;;4.57;3.10;;;9.60;37.10;;;;;;5027558;28;20291;-61
2023/12/31 11:48:22;;;;;;;3.50;3.20;;;9.70;40.60;;;;;;5023045;28;20685;-61
2023/12/31 11:50:48;;;;;;;3.40;3.10;;;9.70;36.40;;;;;;5028230;28;20254;-61
2023/12/31 11:53:15;;;;;;;4.20;3.00;;;9.70;35.90;;;;;;5019973;28;20206;-61
2023/12/31 11:55:42;;;;;;;4.20;3.30;;;9.80;35.50;;;;;;5018981;28;20220;-61
2023/12/31 11:58:09;;;;;;;2.90;2.70;;;9.80;35.70;;;;;;5024147;28;20237;-60
2023/12/31 12:00:36;;;;;;;3.87;3.47;;;9.80;36.30;;;;;;5020046;28;20218;-60
2023/12/31 12:03:02;;;;;;;3.57;3.27;;;9.80;36.00;;;;;;5030721;28;21144;-60
2023/12/31 12:05:29;;;;;;;4.03;3.47;;;9.80;36.10;;;;;;5020900;28;20234;-61
2023/12/31 12:07:56;;;;;;;3.63;3.30;;;9.90;36.10;;;;;;5022729;28;20238;-60
2023/12/31 12:10:23;;;;;;;3.77;2.90;;;10.00;39.90;;;;;;5027451;28;20208;-61
2023/12/31 12:12:53;;;;;;;3.30;2.90;;;10.00;35.20;;;;;;5024387;28;20245;-60
2023/12/31 12:15:20;;;;;;;3.20;3.00;;;9.90;36.90;;;;;;5022456;28;20249;-61
2023/12/31 12:17:46;;;;;;;3.27;2.83;;;9.90;36.10;;;;;;5019508;28;20229;-60
2023/12/31 12:20:13;;;;;;;3.43;3.13;;;9.80;36.00;;;;;;5022890;28;20235;-60
2023/12/31 12:22:39;;;;;;;4.63;3.47;;;9.90;37.30;;;;;;5022231;28;20264;-61
2023/12/31 12:25:06;;;;;;;3.90;3.60;;;9.80;36.10;;;;;;5027990;28;20240;-60
2023/12/31 12:27:32;;;;;;;3.63;3.33;;;9.60;36.50;;;;;;5030003;28;20595;-61
2023/12/31 12:29:59;;;;;;;5.83;3.50;;;9.60;37.00;;;;;;5027392;28;20213;-61
2023/12/31 12:32:25;;;;;;;4.90;3.60;;;9.70;36.60;;;;;;5027742;28;20247;-58
2023/12/31 12:34:52;;;;;;;3.83;3.23;;;9.70;41.00;;;;;;5025866;28;20266;-62
2023/12/31 12:37:19;;;;;;;3.90;3.47;;;9.60;37.70;;;;;;5033856;28;20207;-60
2023/12/31 12:39:45;;;;;;;4.00;2.97;;;9.70;38.10;;;;;;5023530;28;20216;-60
2023/12/31 12:42:12;;;;;;;3.20;3.00;;;9.70;37.10;;;;;;5014570;28;20212;-59
2023/12/31 12:44:38;;;;;;;3.20;2.80;;;9.70;37.70;;;;;;5030401;28;20209;-61
2023/12/31 12:47:05;;;;;;;3.60;2.97;;;9.70;36.60;;;;;;5032993;28;20713;-59
2023/12/31 12:49:32;;;;;;;3.23;3.00;;;9.70;36.20;;;;;;5022168;28;20214;-60
2023/12/31 12:51:58;;;;;;;3.40;3.07;;;9.80;36.40;;;;;;5026089;28;20238;-60
2023/12/31 12:54:25;;;;;;;7.10;3.73;;;9.90;37.90;;;;;;5022384;28;20225;-58